createdAt,value
2019-02-14T00:03:23.465Z,3.53
2019-02-14T00:08:26.792Z,3.10
2019-02-14T00:13:30.129Z,4.10
2019-02-14T00:18:33.455Z,3.77
2019-02-14T00:23:36.760Z,5.17
2019-02-14T00:28:40.081Z,3.30
2019-02-14T00:33:43.476Z,3.67
2019-02-14T00:38:46.849Z,3.07
2019-02-14T00:43:50.155Z,3.20
2019-02-14T00:48:53.459Z,3.43
2019-02-14T00:53:56.896Z,3.60
2019-02-14T00:59:00.229Z,2.03
2019-02-14T01:04:03.563Z,3.23
2019-02-14T01:09:07.067Z,2.90
2019-02-14T01:14:10.462Z,2.80
2019-02-14T01:19:15.464Z,2.30
2019-02-14T01:24:18.963Z,2.73
2019-02-14T01:29:22.337Z,2.47
2019-02-14T01:34:25.750Z,2.20
2019-02-14T01:39:29.147Z,2.20
2019-02-14T01:44:32.483Z,1.97
2019-02-14T01:49:35.794Z,2.40
2019-02-14T01:54:39.206Z,3.10
2019-02-14T01:59:42.539Z,2.60
2019-02-14T02:04:45.869Z,3.23
2019-02-14T02:09:49.177Z,2.93
2019-02-14T02:14:52.502Z,2.53
2019-02-14T02:19:55.833Z,1.27
2019-02-14T02:24:59.165Z,2.67
2019-02-14T02:30:02.867Z,2.13
2019-02-14T02:35:07.535Z,4.27
2019-02-14T02:40:10.852Z,2.87
2019-02-14T02:45:14.177Z,2.47
2019-02-14T02:50:17.501Z,2.17
2019-02-14T02:55:20.904Z,2.67
2019-02-14T03:00:24.217Z,2.03
2019-02-14T03:05:27.643Z,2.97
2019-02-14T03:10:30.969Z,3.40
2019-02-14T03:15:34.301Z,1.83
2019-02-14T03:20:37.639Z,2.20
2019-02-14T03:25:40.968Z,2.80
2019-02-14T03:30:44.315Z,1.73
2019-02-14T03:35:47.642Z,3.93
2019-02-14T03:40:50.967Z,2.93
2019-02-14T03:45:54.365Z,2.83
2019-02-14T03:50:57.691Z,3.23
2019-02-14T03:56:01.029Z,1.90
2019-02-14T04:01:04.326Z,4.23
2019-02-14T04:06:07.657Z,2.73
2019-02-14T04:11:11.096Z,3.07
2019-02-14T04:16:14.404Z,2.80
2019-02-14T04:21:17.732Z,2.50
2019-02-14T04:26:21.047Z,3.70
2019-02-14T04:31:24.399Z,3.17
2019-02-14T04:36:35.548Z,2.77
2019-02-14T04:41:32.827Z,3.90
2019-02-14T04:46:36.161Z,2.90
2019-02-14T04:51:39.496Z,2.60
2019-02-14T04:56:42.828Z,2.70
2019-02-14T05:01:46.230Z,2.37
2019-02-14T05:06:49.555Z,3.40
2019-02-14T05:11:52.885Z,2.60
2019-02-14T05:16:56.267Z,3.23
2019-02-14T05:21:59.684Z,1.93
2019-02-14T05:27:03.017Z,3.57
2019-02-14T05:32:06.354Z,2.40
2019-02-14T05:37:09.801Z,2.80
2019-02-14T05:42:13.140Z,2.80
2019-02-14T05:47:16.479Z,2.93
2019-02-14T05:52:19.781Z,2.57
2019-02-14T05:57:23.193Z,3.43
2019-02-14T06:02:26.519Z,6.00
2019-02-14T06:07:29.851Z,5.10
2019-02-14T06:12:33.162Z,4.73
2019-02-14T06:17:36.562Z,4.80
2019-02-14T06:22:39.886Z,4.13
2019-02-14T06:27:43.222Z,5.53
2019-02-14T06:32:46.553Z,3.77
2019-02-14T06:37:49.909Z,3.27
2019-02-14T06:42:53.239Z,4.50
2019-02-14T06:47:56.593Z,5.53
2019-02-14T06:52:59.911Z,4.03
2019-02-14T06:58:03.246Z,3.87
2019-02-14T07:03:06.576Z,3.77
2019-02-14T07:08:09.946Z,3.20
2019-02-14T07:13:13.262Z,5.53
2019-02-14T07:18:16.593Z,3.40
2019-02-14T07:23:19.954Z,3.93
2019-02-14T07:28:23.358Z,3.83
2019-02-14T07:33:26.740Z,3.63
2019-02-14T07:38:30.191Z,3.43
2019-02-14T07:43:33.568Z,3.27
2019-02-14T07:48:36.901Z,3.60
2019-02-14T07:53:40.235Z,4.50
2019-02-14T07:58:43.549Z,4.50
2019-02-14T08:03:46.961Z,4.20
2019-02-14T08:08:50.292Z,4.67
2019-02-14T08:13:53.639Z,4.00
2019-02-14T08:18:57.097Z,3.30
2019-02-14T08:24:00.499Z,4.87
2019-02-14T08:29:03.914Z,3.83
2019-02-14T08:34:07.222Z,5.30
2019-02-14T08:39:10.536Z,5.00
2019-02-14T08:44:13.845Z,6.20
2019-02-14T08:49:17.172Z,6.00
2019-02-14T08:59:41.484Z,5.10
2019-02-14T09:04:44.864Z,5.70
2019-02-14T09:09:48.192Z,5.00
2019-02-14T09:14:51.523Z,5.60
2019-02-14T09:19:54.874Z,6.43
2019-02-14T09:24:58.325Z,5.70
2019-02-14T09:30:01.671Z,6.30
2019-02-14T09:35:07.012Z,7.63
2019-02-14T09:40:16.076Z,5.13
2019-02-14T09:45:19.405Z,4.97
2019-02-14T09:50:22.879Z,8.33
2019-02-14T09:55:26.211Z,6.00
2019-02-14T10:00:29.540Z,6.17
2019-02-14T10:05:32.982Z,7.40
2019-02-14T10:10:36.339Z,6.47
2019-02-14T10:15:39.638Z,6.37
2019-02-14T10:20:42.970Z,5.80
2019-02-14T10:25:46.375Z,6.20
2019-02-14T10:30:49.691Z,7.57
2019-02-14T10:35:53.021Z,7.17
2019-02-14T10:40:56.347Z,8.10
2019-02-14T10:45:59.675Z,7.70
2019-02-14T10:51:03.049Z,6.93
2019-02-14T10:56:06.437Z,7.73
2019-02-14T11:01:09.801Z,5.83
2019-02-14T11:06:13.131Z,7.67
2019-02-14T11:11:16.521Z,6.13
2019-02-14T11:16:19.954Z,8.20
2019-02-14T11:21:23.288Z,5.37
2019-02-14T11:26:26.673Z,5.33
2019-02-14T11:31:29.985Z,6.90
2019-02-14T11:36:33.316Z,6.83
2019-02-14T11:41:36.753Z,8.00
2019-02-14T11:46:40.089Z,5.30
2019-02-14T11:51:43.504Z,7.13
2019-02-14T11:56:46.868Z,7.43
2019-02-14T12:01:55.382Z,8.33
2019-02-14T12:06:55.331Z,5.90
2019-02-14T12:11:58.732Z,7.93
2019-02-14T12:17:02.254Z,7.50
2019-02-14T12:22:05.589Z,5.90
2019-02-14T12:27:08.931Z,6.43
2019-02-14T12:32:12.260Z,7.73
2019-02-14T12:37:16.124Z,7.30
2019-02-14T12:42:19.577Z,9.70
2019-02-14T12:47:22.972Z,7.53
2019-02-14T12:52:26.376Z,7.77
2019-02-14T12:57:29.721Z,10.53
2019-02-14T13:02:33.285Z,7.27
2019-02-14T13:07:36.603Z,5.93
2019-02-14T13:12:40.043Z,5.90
2019-02-14T13:17:44.494Z,6.57
2019-02-14T13:22:47.903Z,7.20
2019-02-14T13:27:51.219Z,6.90
2019-02-14T13:32:54.557Z,8.30
2019-02-14T13:37:57.897Z,7.17
2019-02-14T13:43:01.222Z,6.53
2019-02-14T13:48:04.572Z,6.93
2019-02-14T13:53:07.912Z,9.33
2019-02-14T13:58:11.274Z,8.83
2019-02-14T14:03:14.670Z,7.17
2019-02-14T14:08:18.113Z,9.97
2019-02-14T14:13:21.449Z,7.67
2019-02-14T14:18:24.833Z,9.50
2019-02-14T14:23:28.172Z,10.10
2019-02-14T14:28:31.527Z,7.90
2019-02-14T14:33:34.928Z,8.07
2019-02-14T14:38:38.272Z,6.97
2019-02-14T14:43:43.254Z,8.43
2019-02-14T14:48:46.615Z,6.13
2019-02-14T14:53:49.942Z,9.10
2019-02-14T14:58:53.288Z,8.03
2019-02-14T15:03:56.604Z,8.97
2019-02-14T15:08:59.936Z,9.87
2019-02-14T15:14:03.312Z,6.60
2019-02-14T15:19:06.654Z,8.17
2019-02-14T15:24:09.986Z,7.60
2019-02-14T15:29:13.321Z,8.20
2019-02-14T15:34:16.656Z,7.50
2019-02-14T15:39:20.011Z,6.03
2019-02-14T15:44:23.359Z,8.00
2019-02-14T15:49:26.702Z,7.30
2019-02-14T15:54:31.384Z,7.60
2019-02-14T15:59:35.142Z,7.90
2019-02-14T16:04:38.584Z,6.40
2019-02-14T16:09:41.960Z,8.60
2019-02-14T16:14:45.296Z,9.10
2019-02-14T16:19:48.692Z,6.83
2019-02-14T16:24:52.030Z,6.80
2019-02-14T16:30:00.501Z,7.27
2019-02-14T16:35:04.314Z,7.30
2019-02-14T16:40:09.584Z,7.07
2019-02-14T16:45:12.966Z,7.00
2019-02-14T16:50:16.322Z,5.30
2019-02-14T16:55:19.654Z,7.50
2019-02-14T17:00:23.161Z,6.70
2019-02-14T17:05:26.471Z,5.50
2019-02-14T17:10:36.666Z,8.20
2019-02-14T17:15:34.928Z,7.63
2019-02-14T17:20:38.330Z,8.47
2019-02-14T17:25:41.669Z,7.33
2019-02-14T17:30:45.008Z,5.27
2019-02-14T17:35:48.506Z,5.53
2019-02-14T17:40:51.879Z,7.00
2019-02-14T17:45:55.294Z,6.00
2019-02-14T17:50:58.641Z,7.03
2019-02-14T17:56:02.048Z,7.90
2019-02-14T18:01:05.406Z,7.33
2019-02-14T18:06:08.766Z,7.17
2019-02-14T18:11:12.054Z,8.90
2019-02-14T18:16:15.445Z,8.07
2019-02-14T18:21:18.776Z,7.67
2019-02-14T18:26:22.187Z,8.43
2019-02-14T18:31:25.525Z,9.97
2019-02-14T18:36:28.899Z,8.90
2019-02-14T18:41:32.203Z,7.07
2019-02-14T18:46:35.619Z,11.87
2019-02-14T18:51:39.427Z,8.47
2019-02-14T18:56:42.846Z,7.23
2019-02-14T19:01:46.248Z,8.80
2019-02-14T19:06:49.583Z,8.03
2019-02-14T19:11:53.058Z,7.60
2019-02-14T19:16:56.382Z,8.50
2019-02-14T19:21:59.709Z,8.70
2019-02-14T19:27:03.035Z,8.00
2019-02-14T19:32:06.408Z,7.57
2019-02-14T19:37:09.737Z,7.30
2019-02-14T19:42:13.086Z,7.60
2019-02-14T19:47:16.419Z,8.17
2019-02-14T19:52:19.742Z,7.70
2019-02-14T19:57:23.298Z,7.60
2019-02-14T20:02:26.629Z,8.67
2019-02-14T20:07:30.030Z,7.80
2019-02-14T20:12:33.495Z,7.07
2019-02-14T20:17:36.813Z,8.47
2019-02-14T20:22:40.151Z,7.53
2019-02-14T20:27:43.457Z,7.20
2019-02-14T20:32:46.786Z,5.10
2019-02-14T20:37:50.115Z,8.03
2019-02-14T20:42:53.569Z,6.50
2019-02-14T20:47:57.439Z,5.50
2019-02-14T20:53:00.905Z,8.30
2019-02-14T20:58:04.298Z,7.60
2019-02-14T21:03:07.768Z,9.17
2019-02-14T21:08:11.138Z,7.70
2019-02-14T21:13:14.493Z,6.27
2019-02-14T21:18:17.865Z,6.53
2019-02-14T21:23:21.235Z,8.07
2019-02-14T21:28:24.541Z,7.20
2019-02-14T21:33:27.843Z,5.47
2019-02-14T21:38:31.179Z,6.70
2019-02-14T21:43:34.521Z,7.23
2019-02-14T21:48:37.860Z,5.87
2019-02-14T21:53:41.195Z,6.23
2019-02-14T21:58:44.583Z,5.60
2019-02-14T22:03:47.947Z,6.30
2019-02-14T22:08:51.291Z,6.57
2019-02-14T22:13:54.621Z,5.90
2019-02-14T22:18:58.043Z,7.10
2019-02-14T22:24:01.436Z,5.80
2019-02-14T22:29:04.762Z,5.37
2019-02-14T22:34:08.164Z,7.37
2019-02-14T22:39:11.508Z,6.33
2019-02-14T22:44:14.830Z,7.33
2019-02-14T22:49:18.160Z,7.47
2019-02-14T22:54:21.500Z,5.57
2019-02-14T22:59:24.985Z,6.10
2019-02-14T23:04:58.863Z,7.30
2019-02-14T23:10:02.181Z,7.67
2019-02-14T23:15:07.230Z,7.13
2019-02-14T23:20:10.540Z,7.03
2019-02-14T23:25:13.839Z,7.17
2019-02-14T23:30:17.156Z,7.13
2019-02-14T23:35:20.470Z,7.10
2019-02-14T23:40:23.762Z,6.80
2019-02-14T23:45:27.084Z,8.70
2019-02-14T23:50:30.400Z,8.00
2019-02-14T23:55:33.703Z,5.97
